createdAt,value
2022-08-23T00:00:13.183Z,19.16
2022-08-23T00:01:10.390Z,19.18
2022-08-23T00:02:11.496Z,19.16
2022-08-23T00:03:12.895Z,19.15
2022-08-23T00:04:12.080Z,19.14
2022-08-23T00:05:12.238Z,19.12
2022-08-23T00:06:13.730Z,19.14
2022-08-23T00:07:12.680Z,19.12
2022-08-23T00:08:13.362Z,19.11
2022-08-23T00:09:13.587Z,19.11
2022-08-23T00:10:13.769Z,19.11
2022-08-23T00:11:15.301Z,19.11
2022-08-23T00:12:14.167Z,19.11
2022-08-23T00:13:12.958Z,19.09
2022-08-23T00:14:15.122Z,19.09
2022-08-23T00:15:15.311Z,19.07
2022-08-23T00:16:15.842Z,19.07
2022-08-23T00:17:33.618Z,19.08
2022-08-23T00:18:15.347Z,19.07
2022-08-23T00:19:16.561Z,19.07
2022-08-23T00:20:16.751Z,19.07
2022-08-23T00:21:17.153Z,19.02
2022-08-23T00:22:15.434Z,19.02
2022-08-23T00:23:16.728Z,19.02
2022-08-23T00:24:17.904Z,19.00
2022-08-23T00:25:16.306Z,19.00
2022-08-23T00:26:20.446Z,18.98
2022-08-23T00:27:16.879Z,18.99
2022-08-23T00:28:17.196Z,19.02
2022-08-23T00:29:17.509Z,19.00
2022-08-23T00:30:17.818Z,19.00
2022-08-23T00:31:21.515Z,18.99
2022-08-23T00:32:18.427Z,18.99
2022-08-23T00:33:20.613Z,18.98
2022-08-23T00:34:19.002Z,18.96
2022-08-23T00:35:27.011Z,18.96
2022-08-23T00:36:23.670Z,18.96
2022-08-23T00:37:19.963Z,18.96
2022-08-23T00:38:33.905Z,18.95
2022-08-23T00:39:21.592Z,18.95
2022-08-23T00:40:20.876Z,18.96
2022-08-23T00:41:24.204Z,18.96
2022-08-23T00:42:21.473Z,18.96
2022-08-23T00:43:25.708Z,18.95
2022-08-23T00:44:22.123Z,18.96
2022-08-23T00:45:22.439Z,18.98
2022-08-23T00:46:25.766Z,18.96
2022-08-23T00:47:24.847Z,18.96
2022-08-23T00:48:23.380Z,18.96
2022-08-23T00:49:23.698Z,18.98
2022-08-23T00:50:24.411Z,18.99
2022-08-23T00:51:27.532Z,18.99
2022-08-23T00:52:24.556Z,19.02
2022-08-23T00:53:24.869Z,19.02
2022-08-23T00:54:25.175Z,19.07
2022-08-23T00:55:25.496Z,19.07
2022-08-23T00:56:28.652Z,19.08
2022-08-23T00:57:26.062Z,19.08
2022-08-23T00:58:26.384Z,19.11
2022-08-23T00:59:26.696Z,19.09
2022-08-23T01:00:26.993Z,19.12
2022-08-23T01:01:28.843Z,19.11
2022-08-23T01:02:29.563Z,19.14
2022-08-23T01:03:28.741Z,19.12
2022-08-23T01:04:29.124Z,19.09
2022-08-23T01:05:29.322Z,19.09
2022-08-23T01:06:29.470Z,19.11
2022-08-23T01:07:30.903Z,19.09
2022-08-23T01:08:31.068Z,19.11
2022-08-23T01:09:31.266Z,19.15
2022-08-23T01:10:29.772Z,19.18
2022-08-23T01:11:31.039Z,19.21
2022-08-23T01:12:34.356Z,19.22
2022-08-23T01:13:32.584Z,19.26
2022-08-23T01:14:30.976Z,19.24
2022-08-23T01:15:31.279Z,19.22
2022-08-23T01:16:34.657Z,19.19
2022-08-23T01:17:31.817Z,19.22
2022-08-23T01:18:32.143Z,19.24
2022-08-23T01:19:32.454Z,19.26
2022-08-23T01:20:32.805Z,19.27
2022-08-23T01:21:36.998Z,19.31
2022-08-23T01:22:35.218Z,19.34
2022-08-23T01:23:33.601Z,19.34
2022-08-23T01:25:06.397Z,19.34
2022-08-23T01:25:35.209Z,19.36
2022-08-23T01:26:37.539Z,19.39
2022-08-23T01:27:36.619Z,19.37
2022-08-23T01:28:36.801Z,19.37
2022-08-23T01:29:37.009Z,19.40
2022-08-23T01:30:37.212Z,19.39
2022-08-23T01:31:39.903Z,19.37
2022-08-23T01:32:38.119Z,19.37
2022-08-23T01:33:38.308Z,19.39
2022-08-23T01:34:45.389Z,19.37
2022-08-23T01:35:39.732Z,19.40
2022-08-23T01:36:40.440Z,19.40
2022-08-23T01:37:39.679Z,19.44
2022-08-23T01:38:38.070Z,19.44
2022-08-23T01:39:38.391Z,19.41
2022-08-23T01:40:40.583Z,19.41
2022-08-23T01:41:41.997Z,19.41
2022-08-23T01:42:40.950Z,19.41
2022-08-23T01:43:41.130Z,19.41
2022-08-23T01:44:41.836Z,19.41
2022-08-23T01:45:42.042Z,19.45
2022-08-23T01:46:41.503Z,19.48
2022-08-23T01:47:42.847Z,19.45
2022-08-23T01:48:43.104Z,19.45
2022-08-23T01:49:43.188Z,19.45
2022-08-23T01:50:43.400Z,19.44
2022-08-23T01:51:43.071Z,19.44
2022-08-23T01:52:47.156Z,19.48
2022-08-23T01:53:44.609Z,19.47
2022-08-23T01:54:44.828Z,19.44
2022-08-23T01:55:44.988Z,19.45
2022-08-23T01:56:45.135Z,19.47
2022-08-23T01:57:47.760Z,19.47
2022-08-23T01:58:46.064Z,19.44
2022-08-23T01:59:46.279Z,19.45
2022-08-23T02:00:46.443Z,19.47
2022-08-23T02:01:47.089Z,19.45
2022-08-23T02:02:47.290Z,19.47
2022-08-23T02:03:45.660Z,19.45
2022-08-23T02:04:45.904Z,19.45
2022-08-23T02:05:48.163Z,19.45
2022-08-23T02:06:48.059Z,19.45
2022-08-23T02:07:46.816Z,19.47
2022-08-23T02:08:47.124Z,19.47
2022-08-23T02:09:47.436Z,19.45
2022-08-23T02:10:49.717Z,19.44
2022-08-23T02:11:51.139Z,19.44
2022-08-23T02:12:50.038Z,19.44
2022-08-23T02:13:50.210Z,19.40
2022-08-23T02:14:50.377Z,19.40
2022-08-23T02:15:51.067Z,19.40
2022-08-23T02:17:03.644Z,19.41
2022-08-23T02:17:51.707Z,19.41
2022-08-23T02:18:51.859Z,19.44
2022-08-23T02:19:52.052Z,19.44
2022-08-23T02:20:52.230Z,19.45
2022-08-23T02:21:50.919Z,19.44
2022-08-23T02:22:53.081Z,19.45
2022-08-23T02:23:53.248Z,19.45
2022-08-23T02:24:53.449Z,19.44
2022-08-23T02:25:53.656Z,19.45
2022-08-23T02:26:56.630Z,19.44
2022-08-23T02:27:52.626Z,19.41
2022-08-23T02:28:54.809Z,19.40
2022-08-23T02:29:54.997Z,19.39
2022-08-23T02:30:53.602Z,19.39
2022-08-23T02:31:55.842Z,19.37
2022-08-23T02:32:54.184Z,19.37
2022-08-23T02:35:12.113Z,19.37
2022-08-23T02:36:11.396Z,19.34
2022-08-23T02:37:10.829Z,19.37
2022-08-23T02:38:11.083Z,19.36
2022-08-23T02:39:11.336Z,19.36
2022-08-23T02:40:13.623Z,19.34
2022-08-23T02:41:12.683Z,19.33
2022-08-23T02:42:12.155Z,19.31
2022-08-23T02:43:12.409Z,19.31
2022-08-23T02:44:12.651Z,19.31
2022-08-23T02:45:14.888Z,19.31
2022-08-23T02:46:13.986Z,19.31
2022-08-23T02:47:13.460Z,19.33
2022-08-23T02:48:13.715Z,19.33
2022-08-23T02:49:15.942Z,19.33
2022-08-23T02:50:14.291Z,19.33
2022-08-23T02:51:15.299Z,19.33
2022-08-23T02:52:16.820Z,19.34
2022-08-23T02:53:17.088Z,19.36
2022-08-23T02:54:15.531Z,19.36
2022-08-23T02:55:17.698Z,19.34
2022-08-23T02:56:21.417Z,19.33
2022-08-23T02:57:16.351Z,19.33
2022-08-23T02:58:16.600Z,19.31
2022-08-23T02:59:16.854Z,19.33
2022-08-23T03:00:19.070Z,19.33
2022-08-23T03:01:17.442Z,19.33
2022-08-23T03:02:17.722Z,19.31
2022-08-23T03:03:17.995Z,19.31
2022-08-23T03:04:18.245Z,19.30
2022-08-23T03:05:20.498Z,19.30
2022-08-23T03:06:25.716Z,19.29
2022-08-23T03:07:19.113Z,19.29
2022-08-23T03:08:19.365Z,19.26
2022-08-23T03:09:21.597Z,19.24
2022-08-23T03:10:21.848Z,19.24
2022-08-23T03:11:21.057Z,19.24
2022-08-23T03:12:20.514Z,19.24
2022-08-23T03:13:20.774Z,19.22
2022-08-23T03:14:23.019Z,19.24
2022-08-23T03:15:23.293Z,19.24
2022-08-23T03:16:22.370Z,19.21
2022-08-23T03:17:23.908Z,19.21
2022-08-23T03:18:22.238Z,19.18
2022-08-23T03:19:24.479Z,19.18
2022-08-23T03:20:22.825Z,19.18
2022-08-23T03:21:24.044Z,19.15
2022-08-23T03:22:25.355Z,19.15
2022-08-23T03:23:23.715Z,19.15
2022-08-23T03:24:25.935Z,19.14
2022-08-23T03:25:24.286Z,19.11
2022-08-23T03:26:24.749Z,19.12
2022-08-23T03:27:24.831Z,19.12
2022-08-23T03:28:25.072Z,19.12
2022-08-23T03:29:27.310Z,19.11
2022-08-23T03:30:25.641Z,19.11
2022-08-23T03:31:30.517Z,19.08
2022-08-23T03:32:26.108Z,19.09
2022-08-23T03:33:29.752Z,19.09
2022-08-23T03:34:29.932Z,19.08
2022-08-23T03:35:27.973Z,19.07
2022-08-23T03:36:30.184Z,19.04
2022-08-23T03:37:28.291Z,19.04
2022-08-23T03:38:29.620Z,19.04
2022-08-23T03:39:29.841Z,19.02
2022-08-23T03:40:29.307Z,19.02
2022-08-23T03:41:31.753Z,19.00
2022-08-23T03:42:30.793Z,19.00
2022-08-23T03:43:30.155Z,18.99
2022-08-23T03:44:32.885Z,18.99
2022-08-23T03:45:30.599Z,18.99
2022-08-23T03:46:34.128Z,18.96
2022-08-23T03:47:31.426Z,18.98
2022-08-23T03:48:31.584Z,18.96
2022-08-23T03:49:33.006Z,18.95
2022-08-23T03:50:33.190Z,18.96
2022-08-23T03:51:34.627Z,18.98
2022-08-23T03:52:33.595Z,18.96
2022-08-23T03:53:34.316Z,18.96
2022-08-23T03:54:34.576Z,18.96
2022-08-23T03:55:34.802Z,18.96
2022-08-23T03:56:37.979Z,18.96
2022-08-23T03:57:33.428Z,18.96
2022-08-23T03:58:33.746Z,18.96
2022-08-23T03:59:34.966Z,18.96
2022-08-23T04:00:36.180Z,18.95
2022-08-23T04:01:35.484Z,18.93
2022-08-23T04:02:36.883Z,18.93
2022-08-23T04:03:35.157Z,18.93
2022-08-23T04:04:37.342Z,18.93
2022-08-23T04:05:35.750Z,18.95
2022-08-23T04:06:39.110Z,18.95
2022-08-23T04:07:36.416Z,18.95
2022-08-23T04:08:36.737Z,18.95
2022-08-23T04:09:38.918Z,18.92
2022-08-23T04:10:39.315Z,18.93
2022-08-23T04:11:40.641Z,18.93
2022-08-23T04:12:37.941Z,18.93
2022-08-23T04:13:38.267Z,18.95
2022-08-23T04:14:38.630Z,18.92
2022-08-23T04:15:40.799Z,18.93
2022-08-23T04:16:40.637Z,18.93
2022-08-23T04:17:40.607Z,18.93
2022-08-23T04:18:39.722Z,18.95
2022-08-23T04:19:40.082Z,18.95
2022-08-23T04:20:42.238Z,18.95
2022-08-23T04:21:44.483Z,18.93
2022-08-23T04:22:41.011Z,18.95
2022-08-23T04:23:43.097Z,18.93
2022-08-23T04:24:41.500Z,18.93
2022-08-23T04:25:43.724Z,18.95
2022-08-23T04:26:43.665Z,18.93
2022-08-23T04:27:42.372Z,18.93
2022-08-23T04:28:44.531Z,18.93
2022-08-23T04:29:42.953Z,18.93
2022-08-23T04:30:45.248Z,18.93
2022-08-23T04:31:45.067Z,18.95
2022-08-23T04:32:43.832Z,18.93
2022-08-23T04:33:44.212Z,18.96
2022-08-23T04:34:45.318Z,18.96
2022-08-23T04:35:46.627Z,18.95
2022-08-23T04:36:51.856Z,18.95
2022-08-23T04:37:46.257Z,18.96
2022-08-23T04:38:45.529Z,18.95
2022-08-23T04:39:45.892Z,18.95
2022-08-23T04:40:47.096Z,18.95
2022-08-23T04:41:47.233Z,18.98
2022-08-23T04:42:48.574Z,18.98
2022-08-23T04:43:46.878Z,18.98
2022-08-23T04:44:47.104Z,18.96
2022-08-23T04:45:47.342Z,18.96
2022-08-23T04:46:48.546Z,18.96
2022-08-23T04:47:47.834Z,18.98
2022-08-23T04:48:50.026Z,18.98
2022-08-23T04:49:48.326Z,18.96
2022-08-23T04:50:48.550Z,18.96
2022-08-23T04:51:53.818Z,18.96
2022-08-23T04:52:52.117Z,18.98
2022-08-23T04:53:49.456Z,18.99
2022-08-23T04:54:51.670Z,18.98
2022-08-23T04:55:49.970Z,18.98
2022-08-23T04:56:54.143Z,18.98
2022-08-23T04:57:50.468Z,18.99
2022-08-23T04:58:52.648Z,18.96
2022-08-23T04:59:51.074Z,18.95
2022-08-23T05:00:53.295Z,18.95
2022-08-23T05:01:53.445Z,18.95
2022-08-23T05:02:51.888Z,18.95
2022-08-23T05:03:52.117Z,18.96
2022-08-23T05:04:52.426Z,18.95
2022-08-23T05:05:52.782Z,18.96
2022-08-23T05:06:54.963Z,18.95
2022-08-23T05:07:53.259Z,18.95
2022-08-23T05:08:55.431Z,18.96
2022-08-23T05:09:53.741Z,18.96
2022-08-23T05:10:53.963Z,18.96
2022-08-23T05:11:56.167Z,18.96
2022-08-23T05:12:58.312Z,18.98
2022-08-23T05:13:56.531Z,19.00
2022-08-23T05:14:59.234Z,19.00
2022-08-23T05:15:55.442Z,19.00
2022-08-23T05:16:55.768Z,19.04
2022-08-23T05:17:57.904Z,19.07
2022-08-23T05:18:58.068Z,19.08
2022-08-23T05:19:57.414Z,19.11
2022-08-23T05:20:56.835Z,19.09
2022-08-23T05:21:57.372Z,19.12
2022-08-23T05:22:57.314Z,19.15
2022-08-23T05:23:57.566Z,19.18
2022-08-23T05:24:59.742Z,19.21
2022-08-23T05:25:58.044Z,19.18
2022-08-23T05:27:01.700Z,19.19
2022-08-23T05:27:58.518Z,19.21
2022-08-23T05:28:58.741Z,19.18
2022-08-23T05:30:00.937Z,19.21
2022-08-23T05:30:59.235Z,19.22
2022-08-23T05:32:01.424Z,19.22
2022-08-23T05:32:59.862Z,19.24
2022-08-23T05:34:02.010Z,19.27
2022-08-23T05:35:00.443Z,19.31
2022-08-23T05:36:02.615Z,19.31
2022-08-23T05:37:00.917Z,19.31
2022-08-23T05:38:01.316Z,19.33
2022-08-23T05:39:05.303Z,19.31
2022-08-23T05:40:05.061Z,19.31
2022-08-23T05:41:06.903Z,19.31
2022-08-23T05:42:03.242Z,19.33
2022-08-23T05:43:06.432Z,19.34
2022-08-23T05:44:03.572Z,19.34
2022-08-23T05:45:06.198Z,19.34
2022-08-23T05:46:04.128Z,19.39
2022-08-23T05:47:10.411Z,19.45
2022-08-23T05:48:04.802Z,19.47
2022-08-23T05:49:04.092Z,19.49
2022-08-23T05:50:04.321Z,19.52
2022-08-23T05:51:04.546Z,19.52
2022-08-23T05:52:04.893Z,19.56
2022-08-23T05:53:07.073Z,19.59
2022-08-23T05:54:05.487Z,19.64
2022-08-23T05:55:05.713Z,19.70
2022-08-23T05:56:07.902Z,19.86
2022-08-23T05:57:08.073Z,20.02
2022-08-23T05:58:08.268Z,20.07
2022-08-23T05:59:12.570Z,20.03
2022-08-23T06:00:09.129Z,19.96
2022-08-23T06:01:09.321Z,20.03
2022-08-23T06:02:09.473Z,20.34
2022-08-23T06:03:09.642Z,20.28
2022-08-23T06:04:09.312Z,20.41
2022-08-23T06:05:10.501Z,20.37
2022-08-23T06:06:10.662Z,20.28
2022-08-23T06:07:10.847Z,20.14
2022-08-23T06:08:11.080Z,20.04
2022-08-23T06:09:09.744Z,20.00
2022-08-23T06:10:15.872Z,20.00
2022-08-23T06:11:11.118Z,19.95
2022-08-23T06:12:10.514Z,19.94
2022-08-23T06:13:12.699Z,19.96
2022-08-23T06:14:13.078Z,19.99
2022-08-23T06:15:13.128Z,19.99
2022-08-23T06:16:14.957Z,20.00
2022-08-23T06:17:13.482Z,20.04
2022-08-23T06:18:14.136Z,20.10
2022-08-23T06:19:13.252Z,20.07
2022-08-23T06:20:14.668Z,20.06
2022-08-23T06:21:12.934Z,20.06
2022-08-23T06:22:15.120Z,20.10
2022-08-23T06:23:13.539Z,20.10
2022-08-23T06:24:14.820Z,20.07
2022-08-23T06:25:16.195Z,20.07
2022-08-23T06:26:14.478Z,20.07
2022-08-23T06:27:16.661Z,20.07
2022-08-23T06:28:16.928Z,20.07
2022-08-23T06:29:17.235Z,20.09
2022-08-23T06:30:17.246Z,20.09
2022-08-23T06:31:17.486Z,20.24
2022-08-23T06:32:18.153Z,20.24
2022-08-23T06:33:18.337Z,20.22
2022-08-23T06:34:20.503Z,20.25
2022-08-23T06:35:38.765Z,20.16
2022-08-23T06:36:19.925Z,20.14
2022-08-23T06:37:19.612Z,20.11
2022-08-23T06:38:17.914Z,20.10
2022-08-23T06:39:22.145Z,20.10
2022-08-23T06:40:20.420Z,20.07
2022-08-23T06:41:18.748Z,20.07
2022-08-23T06:43:20.269Z,20.13
2022-08-23T06:44:22.626Z,20.10
2022-08-23T06:45:19.825Z,20.10
2022-08-23T06:46:23.474Z,20.07
2022-08-23T06:47:23.175Z,20.14
2022-08-23T06:48:20.641Z,20.22
2022-08-23T06:49:22.349Z,20.34
2022-08-23T06:50:23.097Z,20.43
2022-08-23T06:51:23.276Z,20.41
2022-08-23T06:52:23.466Z,20.41
2022-08-23T06:53:22.055Z,20.39
2022-08-23T06:54:23.201Z,20.55
2022-08-23T06:55:24.585Z,21.09
2022-08-23T06:56:24.774Z,21.46
2022-08-23T06:57:24.969Z,21.18
2022-08-23T06:58:23.557Z,21.05
2022-08-23T06:59:24.772Z,21.05
2022-08-23T07:00:24.078Z,21.27
2022-08-23T07:01:44.679Z,21.40
2022-08-23T07:02:25.681Z,21.33
2022-08-23T07:03:24.870Z,21.33
2022-08-23T07:04:28.149Z,21.27
2022-08-23T07:05:27.257Z,21.73
2022-08-23T07:06:25.568Z,21.52
2022-08-23T07:07:39.711Z,21.30
2022-08-23T07:08:27.088Z,21.22
2022-08-23T07:09:29.447Z,21.14
2022-08-23T07:10:26.652Z,21.09
2022-08-23T07:11:28.850Z,21.55
2022-08-23T07:12:29.055Z,22.08
2022-08-23T07:13:29.243Z,22.45
2022-08-23T07:14:28.703Z,22.33
2022-08-23T07:15:29.594Z,22.60
2022-08-23T07:16:28.311Z,22.83
2022-08-23T07:17:30.464Z,22.84
2022-08-23T07:18:28.769Z,22.83
2022-08-23T07:19:30.529Z,22.81
2022-08-23T07:20:31.367Z,22.88
2022-08-23T07:21:29.552Z,23.23
2022-08-23T07:22:31.732Z,23.34
2022-08-23T07:23:30.071Z,23.32
2022-08-23T07:24:34.045Z,23.37
2022-08-23T07:25:31.489Z,23.23
2022-08-23T07:26:30.807Z,23.17
2022-08-23T07:27:31.040Z,23.20
2022-08-23T07:28:31.273Z,23.15
2022-08-23T07:29:32.382Z,23.13
2022-08-23T07:30:33.725Z,23.05
2022-08-23T07:31:32.106Z,22.83
2022-08-23T07:32:32.335Z,22.96
2022-08-23T07:33:32.574Z,23.34
2022-08-23T07:34:36.008Z,23.58
2022-08-23T07:35:40.099Z,23.87
2022-08-23T07:36:34.545Z,23.74
2022-08-23T07:37:33.851Z,23.88
2022-08-23T07:38:34.082Z,23.91
2022-08-23T07:39:38.249Z,24.01
2022-08-23T07:40:39.087Z,24.01
2022-08-23T07:41:35.258Z,24.20
2022-08-23T07:42:38.481Z,23.98
2022-08-23T07:43:35.436Z,23.87
2022-08-23T07:44:38.624Z,23.86
2022-08-23T07:45:39.801Z,23.86
2022-08-23T07:46:36.191Z,23.84
2022-08-23T07:47:37.312Z,23.47
2022-08-23T07:48:53.527Z,23.23
2022-08-23T07:49:38.911Z,23.02
2022-08-23T07:50:38.781Z,23.13
2022-08-23T07:51:38.468Z,23.36
2022-08-23T07:52:39.684Z,23.59
2022-08-23T07:53:38.304Z,23.46
2022-08-23T07:54:39.202Z,23.15
2022-08-23T07:55:38.617Z,23.10
2022-08-23T07:56:40.791Z,23.43
2022-08-23T07:57:39.117Z,23.74
2022-08-23T07:58:39.358Z,23.77
2022-08-23T07:59:40.589Z,23.88
2022-08-23T08:00:40.673Z,24.08
2022-08-23T08:01:43.635Z,24.47
2022-08-23T08:02:41.291Z,24.68
2022-08-23T08:03:41.410Z,24.18
2022-08-23T08:04:43.877Z,24.23
2022-08-23T08:05:41.988Z,24.39
2022-08-23T08:06:42.826Z,24.39
2022-08-23T08:07:42.560Z,24.76
2022-08-23T08:08:42.720Z,24.96
2022-08-23T08:09:45.190Z,25.14
2022-08-23T08:10:43.299Z,25.11
2022-08-23T08:11:44.679Z,25.10
2022-08-23T08:12:42.995Z,25.36
2022-08-23T08:13:43.239Z,25.26
2022-08-23T08:14:46.500Z,25.35
2022-08-23T08:15:44.644Z,25.18
2022-08-23T08:16:45.973Z,25.31
2022-08-23T08:17:46.178Z,25.44
2022-08-23T08:18:46.330Z,25.53
2022-08-23T08:19:45.763Z,25.80
2022-08-23T08:20:47.182Z,25.73
2022-08-23T08:21:47.400Z,25.84
2022-08-23T08:22:48.546Z,25.91
2022-08-23T08:23:46.133Z,25.23
2022-08-23T08:24:47.333Z,25.16
2022-08-23T08:25:46.648Z,24.95
2022-08-23T08:26:48.821Z,24.93
2022-08-23T08:27:47.140Z,24.68
2022-08-23T08:28:47.385Z,24.38
2022-08-23T08:29:49.122Z,24.30
2022-08-23T08:30:49.849Z,24.39
2022-08-23T08:31:51.321Z,24.32
2022-08-23T08:32:51.361Z,24.18
2022-08-23T08:33:48.685Z,24.35
2022-08-23T08:34:50.409Z,24.16
2022-08-23T08:35:59.026Z,24.13
2022-08-23T08:36:52.335Z,24.24
2022-08-23T08:37:51.517Z,24.03
2022-08-23T08:38:54.347Z,23.78
2022-08-23T08:39:53.387Z,23.86
2022-08-23T08:40:52.556Z,24.03
2022-08-23T08:41:54.114Z,24.10
2022-08-23T08:42:52.216Z,23.96
2022-08-23T08:43:51.516Z,23.99
2022-08-23T08:44:53.716Z,24.26
2022-08-23T08:45:58.956Z,24.14
2022-08-23T08:46:55.058Z,24.06
2022-08-23T08:47:54.250Z,23.92
2022-08-23T08:48:54.951Z,23.80
2022-08-23T08:49:55.138Z,23.69
2022-08-23T08:50:53.564Z,23.84
2022-08-23T08:51:55.751Z,23.93
2022-08-23T08:52:55.918Z,23.98
2022-08-23T08:53:54.355Z,24.01
2022-08-23T08:54:55.735Z,24.11
2022-08-23T08:55:54.833Z,24.32
2022-08-23T08:56:57.002Z,24.58
2022-08-23T08:57:57.239Z,25.16
2022-08-23T08:58:55.591Z,25.26
2022-08-23T08:59:57.774Z,25.17
2022-08-23T09:00:56.687Z,25.03
2022-08-23T09:01:56.401Z,24.45
2022-08-23T09:02:58.605Z,24.05
2022-08-23T09:03:58.743Z,24.58
2022-08-23T09:04:58.948Z,25.25
2022-08-23T09:05:57.525Z,25.38
2022-08-23T09:06:59.702Z,25.78
2022-08-23T09:07:58.025Z,26.06
2022-08-23T09:08:58.257Z,26.06
2022-08-23T09:09:58.526Z,26.15
2022-08-23T09:10:58.811Z,26.29
2022-08-23T09:12:00.960Z,26.59
2022-08-23T09:12:59.254Z,26.53
2022-08-23T09:13:59.494Z,26.15
2022-08-23T09:15:01.673Z,26.05
2022-08-23T09:15:59.999Z,26.03
2022-08-23T09:17:00.228Z,26.15
2022-08-23T09:18:00.691Z,26.33
2022-08-23T09:19:00.807Z,26.47
2022-08-23T09:20:01.063Z,26.51
2022-08-23T09:21:03.242Z,26.00
2022-08-23T09:22:01.567Z,26.07
2022-08-23T09:23:03.915Z,25.96
2022-08-23T09:24:02.109Z,26.22
2022-08-23T09:25:02.369Z,26.22
2022-08-23T09:26:03.869Z,26.53
2022-08-23T09:27:02.957Z,26.74
2022-08-23T09:28:05.135Z,27.11
2022-08-23T09:29:04.484Z,27.14
2022-08-23T09:30:03.787Z,27.33
2022-08-23T09:31:04.375Z,27.18
2022-08-23T09:32:04.271Z,27.11
2022-08-23T09:33:06.454Z,26.96
2022-08-23T09:34:05.797Z,27.36
2022-08-23T09:35:06.212Z,27.48
2022-08-23T09:36:05.283Z,27.85
2022-08-23T09:37:06.541Z,27.89
2022-08-23T09:38:07.748Z,27.37
2022-08-23T09:39:09.159Z,27.27
2022-08-23T09:40:06.386Z,27.27
2022-08-23T09:41:06.600Z,27.36
2022-08-23T09:42:06.847Z,27.75
2022-08-23T09:43:10.035Z,27.63
2022-08-23T09:44:10.473Z,27.48
2022-08-23T09:45:07.668Z,27.40
2022-08-23T09:46:07.963Z,26.93
2022-08-23T09:47:08.176Z,26.51
2022-08-23T09:48:08.422Z,25.98
2022-08-23T09:49:12.594Z,26.06
2022-08-23T09:50:08.940Z,26.16
2022-08-23T09:51:09.196Z,26.45
2022-08-23T09:52:09.442Z,26.62
2022-08-23T09:53:11.629Z,26.95
2022-08-23T09:54:13.805Z,27.29
2022-08-23T09:55:10.255Z,27.44
2022-08-23T09:56:10.504Z,27.49
2022-08-23T09:57:10.763Z,27.44
2022-08-23T09:58:12.933Z,27.45
2022-08-23T09:59:15.108Z,27.60
2022-08-23T10:00:11.565Z,27.65
2022-08-23T10:01:11.892Z,27.42
2022-08-23T10:02:12.149Z,27.44
2022-08-23T10:03:14.298Z,27.73
2022-08-23T10:04:13.703Z,28.07
2022-08-23T10:05:15.977Z,28.07
2022-08-23T10:06:13.310Z,28.07
2022-08-23T10:07:17.457Z,28.00
2022-08-23T10:08:15.758Z,27.95
2022-08-23T10:09:17.930Z,27.67
2022-08-23T10:10:16.163Z,27.48
2022-08-23T10:11:14.720Z,27.55
2022-08-23T10:12:14.964Z,27.54
2022-08-23T10:13:15.311Z,27.58
2022-08-23T10:14:17.034Z,27.68
2022-08-23T10:15:17.748Z,27.75
2022-08-23T10:16:16.212Z,28.15
2022-08-23T10:17:19.792Z,27.92
2022-08-23T10:18:16.758Z,27.85
2022-08-23T10:19:17.861Z,27.92
2022-08-23T10:20:20.677Z,28.29
2022-08-23T10:21:20.960Z,28.33
2022-08-23T10:22:19.873Z,27.95
2022-08-23T10:23:18.187Z,28.00
2022-08-23T10:24:21.476Z,27.86
2022-08-23T10:25:22.005Z,27.82
2022-08-23T10:26:22.204Z,28.11
2022-08-23T10:27:20.161Z,28.22
2022-08-23T10:28:19.588Z,27.77
2022-08-23T10:29:21.326Z,27.70
2022-08-23T10:30:22.052Z,28.10
2022-08-23T10:31:21.362Z,28.12
2022-08-23T10:32:21.488Z,28.19
2022-08-23T10:33:22.827Z,28.44
2022-08-23T10:34:22.808Z,28.72
2022-08-23T10:35:23.032Z,28.59
2022-08-23T10:36:21.893Z,28.29
2022-08-23T10:37:21.973Z,27.80
2022-08-23T10:38:23.172Z,27.86
2022-08-23T10:39:23.954Z,27.78
2022-08-23T10:40:23.752Z,28.11
2022-08-23T10:41:23.046Z,27.51
2022-08-23T10:42:23.297Z,27.07
2022-08-23T10:43:23.747Z,27.00
2022-08-23T10:44:25.794Z,27.68
2022-08-23T10:45:25.961Z,28.00
2022-08-23T10:46:26.171Z,28.57
2022-08-23T10:47:26.468Z,29.07
2022-08-23T10:48:27.883Z,28.10
2022-08-23T10:49:25.325Z,28.01
2022-08-23T10:50:27.509Z,28.11
2022-08-23T10:51:31.913Z,28.26
2022-08-23T10:52:26.072Z,28.33
2022-08-23T10:53:30.234Z,28.54
2022-08-23T10:54:28.447Z,28.49
2022-08-23T10:55:28.603Z,28.20
2022-08-23T10:56:28.790Z,28.04
2022-08-23T10:57:29.470Z,27.77
2022-08-23T10:58:31.655Z,27.68
2022-08-23T10:59:29.875Z,28.02
2022-08-23T11:00:30.044Z,28.11
2022-08-23T11:01:30.780Z,28.20
2022-08-23T11:02:30.970Z,28.39
2022-08-23T11:03:32.327Z,28.00
2022-08-23T11:04:31.254Z,28.30
2022-08-23T11:05:31.941Z,28.42
2022-08-23T11:06:32.135Z,28.05
2022-08-23T11:07:32.318Z,28.02
2022-08-23T11:08:31.853Z,28.08
2022-08-23T11:09:31.153Z,28.11
2022-08-23T11:10:31.400Z,27.78
2022-08-23T11:11:33.595Z,28.14
2022-08-23T11:12:31.910Z,28.33
2022-08-23T11:13:33.182Z,28.47
2022-08-23T11:14:32.451Z,28.30
2022-08-23T11:15:32.716Z,28.56
2022-08-23T11:16:34.434Z,28.37
2022-08-23T11:17:33.241Z,28.14
2022-08-23T11:18:37.257Z,28.17
2022-08-23T11:19:35.630Z,28.00
2022-08-23T11:20:33.967Z,28.60
2022-08-23T11:21:36.149Z,28.37
2022-08-23T11:22:34.473Z,28.35
2022-08-23T11:23:38.125Z,28.66
2022-08-23T11:24:34.975Z,28.72
2022-08-23T11:25:37.176Z,28.51
2022-08-23T11:26:37.355Z,28.42
2022-08-23T11:27:35.785Z,28.72
2022-08-23T11:28:36.835Z,28.88
2022-08-23T11:29:36.264Z,28.82
2022-08-23T11:30:38.489Z,28.81
2022-08-23T11:31:38.641Z,28.56
2022-08-23T11:32:38.825Z,28.60
2022-08-23T11:33:38.408Z,28.44
2022-08-23T11:34:37.706Z,28.56
2022-08-23T11:35:43.073Z,28.76
2022-08-23T11:36:41.148Z,28.93
2022-08-23T11:37:38.475Z,29.02
2022-08-23T11:38:41.772Z,28.74
2022-08-23T11:39:40.895Z,28.91
2022-08-23T11:40:39.397Z,28.62
2022-08-23T11:41:39.693Z,28.52
2022-08-23T11:42:39.932Z,28.23
2022-08-23T11:43:41.031Z,28.44
2022-08-23T11:44:42.447Z,28.84
2022-08-23T11:45:40.783Z,28.74
2022-08-23T11:46:42.150Z,28.76
2022-08-23T11:47:44.439Z,28.64
2022-08-23T11:48:43.584Z,28.69
2022-08-23T11:49:41.877Z,28.78
2022-08-23T11:50:42.119Z,28.48
2022-08-23T11:51:44.353Z,28.54
2022-08-23T11:52:44.482Z,28.81
2022-08-23T11:53:45.959Z,28.75
2022-08-23T11:54:43.152Z,28.86
2022-08-23T11:55:43.402Z,28.96
2022-08-23T11:56:46.413Z,29.13
2022-08-23T11:57:45.774Z,29.02
2022-08-23T11:58:47.277Z,28.97
2022-08-23T11:59:44.455Z,28.89
2022-08-23T12:00:44.693Z,29.14
2022-08-23T12:01:44.954Z,29.16
2022-08-23T12:02:47.310Z,28.88
2022-08-23T12:03:47.668Z,28.81
2022-08-23T12:04:47.340Z,28.76
2022-08-23T12:05:46.029Z,28.86
2022-08-23T12:06:50.456Z,29.22
2022-08-23T12:07:49.470Z,29.24
2022-08-23T12:08:47.586Z,28.94
2022-08-23T12:09:49.020Z,29.27
2022-08-23T12:10:47.448Z,29.41
2022-08-23T12:11:47.776Z,29.45
2022-08-23T12:12:49.876Z,29.50
2022-08-23T12:13:49.157Z,29.16
2022-08-23T12:14:48.600Z,28.48
2022-08-23T12:15:50.856Z,28.56
2022-08-23T12:16:50.095Z,28.70
2022-08-23T12:17:49.479Z,28.79
2022-08-23T12:18:51.207Z,28.98
2022-08-23T12:19:51.942Z,29.44
2022-08-23T12:20:50.270Z,29.72
2022-08-23T12:21:52.445Z,29.35
2022-08-23T12:22:52.632Z,29.27
2022-08-23T12:23:54.087Z,29.35
2022-08-23T12:24:52.684Z,29.26
2022-08-23T12:25:55.579Z,29.41
2022-08-23T12:26:55.268Z,29.56
2022-08-23T12:27:55.448Z,29.63
2022-08-23T12:28:55.658Z,29.87
2022-08-23T12:29:54.019Z,29.94
2022-08-23T12:30:55.224Z,30.03
2022-08-23T12:31:55.392Z,30.03
2022-08-23T12:32:54.753Z,30.19
2022-08-23T12:33:57.220Z,30.10
2022-08-23T12:34:55.331Z,29.91
2022-08-23T12:35:55.761Z,29.73
2022-08-23T12:36:56.971Z,29.24
2022-08-23T12:37:56.612Z,29.01
2022-08-23T12:38:58.532Z,28.93
2022-08-23T12:39:56.020Z,28.97
2022-08-23T12:40:58.163Z,28.82
2022-08-23T12:41:56.606Z,28.78
2022-08-23T12:42:56.841Z,29.12
2022-08-23T12:43:58.054Z,29.27
2022-08-23T12:44:57.359Z,29.36
2022-08-23T12:45:59.690Z,29.17
2022-08-23T12:46:59.746Z,29.13
2022-08-23T12:47:58.162Z,29.08
2022-08-23T12:48:59.365Z,29.16
2022-08-23T12:49:58.685Z,28.81
2022-08-23T12:50:58.920Z,28.67
2022-08-23T12:51:59.170Z,28.89
2022-08-23T12:53:01.515Z,29.01
2022-08-23T12:54:01.192Z,29.19
2022-08-23T12:55:00.022Z,29.57
2022-08-23T12:56:00.292Z,29.75
2022-08-23T12:57:00.539Z,30.02
2022-08-23T12:58:01.728Z,30.08